MMPB/PBC METAR and TAF weather

Enter ICAO airport designator
Station Type Date Time Source
MMPB METAR 2022/01/29 02:14 UTC NOAA

MMPB 290214Z RTD 36009KT 9SM FEW020 SCT090 10/05 A3042 RMK 8/460 HZY


Station Type Date Time Source
MMPB Decoded METAR 2022/01/29 02:14 UTC NOAA

Puebla, Pue., Mexico (MMPB) 19-03N 098-10W
Jan 28, 2022 - 09:14 PM EST / 2022.01.29 0214 UTC
Wind: from the N (360 degrees) at 10 MPH (9 KT):0
Visibility: 9 mile(s):0
Sky conditions: partly cloudy
Temperature: 50 F (10 C)
Dew Point: 41 F (5 C)
Relative Humidity: 71%
Pressure (altimeter): 30.42 in. Hg (1030 hPa)
ob: MMPB 290214Z RTD 36009KT 9SM FEW020 SCT090 10/05 A3042 RMK 8/460 HZY
cycle: 2

Station Type Date Time Source
MMPB TAF 2022/01/29 06:39 UTC NOAA

TAF MMPB 290431Z 2906/3006 03005KT P6SM SCT020
FM290900 03005KT P6SM BKN020
FM291600 03005KT P6SM SCT020
FM300200 03005KT P6SM SCT020

Example: see airport list